Flight Track Log - Related Links

Times and Time Zones

All times are in EST time to prevent confusion due to time zone crossing. See the OPT332 flight status page for this flight to view local times or setup timezone preferences in your user account.

Time Position Orientation Groundspeed Altitude Reporting Facility
EST Latitude Longitude Course Direction KTS MPH feet Rate Location/Type
Fri 09:05:51 AM 27.7103 -80.3986 263° West 379 436 2,000  Level Miami Center
Fri 09:06:51 AM 27.7603 -80.4003 358° North 233 268 5,200 2,550 Climbing Miami Center
Fri 09:07:51 AM 27.7586 -80.4683 268° West 164 189 7,100 1,850 Climbing Miami Center
Fri 09:08:00 AM 27.7999 -80.9591 257° West  Level Estimated
Fri 09:08:51 AM 27.7439 -80.5497 258° West 225 259 8,900  Level Miami Center
Fri 09:09:00 AM 27.8237 -81.0495 262° West  Level Estimated
Fri 09:09:51 AM 27.7314 -80.6339 260° West 270 311 9,000  Level Miami Center
Fri 09:10:00 AM 27.8475 -81.1398 270° West  Level Estimated
Fri 09:10:51 AM 27.7161 -80.7342 260° West 292 336 12,200  Level Miami Center
Fri 09:11:00 AM 27.8712 -81.2303 263° West  Level Estimated
Fri 09:11:51 AM 27.7011 -80.8228 259° West 298 343 14,900  Level Miami Center
Fri 09:12:51 AM 27.6861 -80.9183 260° West 298 343 17,200 2,000 Climbing Miami Center
Fri 09:13:51 AM 27.6689 -81.0044 257° West 310 357 18,900 2,000 Climbing Miami Center
Fri 09:14:51 AM 27.6533 -81.1072 260° West 322 371 21,200 2,450 Climbing Miami Center
Fri 09:15:51 AM 27.6358 -81.2119 259° West 322 371 23,800 2,300 Climbing Miami Center
Fri 09:16:51 AM 27.6203 -81.3075 260° West 317 365 25,800 1,950 Climbing Miami Center
Fri 09:17:51 AM 27.6047 -81.4053 260° West 317 365 27,700 1,800 Climbing Miami Center
Fri 09:18:51 AM 27.5892 -81.5006 260° West 311 358 29,400 1,850 Climbing Miami Center
Fri 09:19:51 AM 27.5903 -81.5919 271° West 316 364 31,400 1,850 Climbing Miami Center
Fri 09:20:51 AM 27.5997 -81.6883 276° West 310 357 33,100 1,750 Climbing Miami Center
Fri 09:21:51 AM 27.6086 -81.7967 275° West 315 362 34,900 1,800 Climbing Miami Center
Fri 09:22:51 AM 27.6178 -81.8931 276° West 315 362 36,700 1,550 Climbing Miami Center
Fri 09:23:51 AM 27.6250 -81.9847 275° West 308 354 38,000 650 Climbing Miami Center
Fri 09:24:51 AM 27.6342 -82.0742 277° West 314 361 38,000  Level Miami Center
Fri 09:25:51 AM 27.6444 -82.1917 276° West 335 386 38,000  Level Miami Center
Fri 09:26:51 AM 27.6531 -82.3022 275° West 348 400 38,000 500 Level Miami Center
Fri 09:27:51 AM 27.6633 -82.4128 276° West 357 411 39,000 1,250 Climbing Miami Center
Fri 09:28:51 AM 27.6722 -82.5069 276° West 352 405 40,500 1,500 Climbing Miami Center
Fri 09:29:51 AM 27.6786 -82.6058 274° West 334 384 42,000 1,050 Climbing Miami Center
Fri 09:30:51 AM 27.6869 -82.7139 275° West 321 369 42,600 500 Climbing Miami Center
Fri 09:31:51 AM 27.6953 -82.8128 275° West 321 369 43,000 200 Climbing Miami Center
Fri 09:32:51 AM 27.7078 -82.9167 278° West 326 375 43,000  Level Miami Center
Fri 09:33:51 AM 27.7178 -83.0250 276° West 339 390 43,000  Level Miami Center
Fri 09:34:51 AM 27.7256 -83.1356 275° West 351 404 43,000  Level Miami Center
Fri 09:35:51 AM 27.7331 -83.2439 274° West 351 404 43,000  Level Miami Center
Fri 09:36:51 AM 27.7389 -83.3519 274° West 351 404 43,000  Level Miami Center
Fri 09:37:51 AM 27.7525 -83.4628 278° West 351 404 43,000  Level Miami Center
Fri 09:38:51 AM 27.7600 -83.5711 274° West 351 404 43,000  Level Miami Center
Fri 09:40:43 AM 27.7756 -83.7719 275° West 345 397 43,000  Level Jacksonville Center
Fri 09:41:43 AM 27.7811 -83.8825 273° West 346 398 43,000  Level Jacksonville Center
Fri 09:42:44 AM 27.7928 -83.9881 277° West 346 398 43,000  Level Jacksonville Center
Fri 09:43:43 AM 27.8000 -84.0961 274° West 346 398 43,000  Level Jacksonville Center
Fri 09:44:43 AM 27.8114 -84.2064 277° West 351 404 43,000  Level Jacksonville Center
Fri 09:45:44 AM 27.8144 -84.3167 272° West 351 404 43,000  Level Jacksonville Center
Fri 09:46:44 AM 27.8258 -84.4247 277° West 351 404 43,000  Level Jacksonville Center
Fri 09:47:44 AM 27.8347 -84.5353 275° West 351 404 43,000  Level Jacksonville Center
Fri 09:48:42 AM 27.8397 -84.6456 273° West 351 404 43,000  Level Jacksonville Center
Fri 09:49:43 AM 27.8486 -84.7561 275° West 351 404 43,000  Level Jacksonville Center
Fri 09:50:44 AM 27.8572 -84.8664 275° West 351 404 43,000  Level Jacksonville Center
Fri 09:51:42 AM 27.8639 -84.9817 274° West 357 411 43,000  Level Jacksonville Center
Fri 09:52:42 AM 27.8725 -85.0922 275° West 357 411 43,000  Level Jacksonville Center
Fri 09:53:44 AM 27.8789 -85.2025 274° West 357 411 43,000  Level Jacksonville Center
Fri 09:54:44 AM 27.8997 -85.3111 282° West 364 419 43,000  Level Jacksonville Center
Fri 09:55:44 AM 27.9331 -85.4222 289° West 364 419 43,000  Level Jacksonville Center
Fri 09:56:42 AM 27.9664 -85.5336 289° West 370 426 43,000  Level Jacksonville Center
Fri 09:57:43 AM 27.9975 -85.6425 288° West 365 420 43,000  Level Jacksonville Center
Fri 09:58:43 AM 28.0306 -85.7539 289° West 365 420 43,000  Level Jacksonville Center
Fri 09:59:44 AM 28.0656 -85.8606 290° West 365 420 43,000  Level Jacksonville Center
Fri 10:00:42 AM 28.0947 -85.9581 289° West 372 428 43,000  Level Jacksonville Center
Fri 10:01:43 AM 28.1272 -86.0742 288° West 367 422 43,000  Level Jacksonville Center
Fri 10:02:43 AM 28.1600 -86.1858 288° West 367 422 43,000  Level Jacksonville Center
Fri 10:03:42 AM 28.1928 -86.2931 289° West 367 422 43,000  Level Jacksonville Center
Fri 10:04:43 AM 28.2253 -86.4025 289° West 373 429 43,000  Level Jacksonville Center
Fri 10:05:43 AM 28.2594 -86.5167 289° West 373 429 43,000  Level Jacksonville Center
Fri 10:06:44 AM 28.2919 -86.6286 288° West 380 437 43,000  Level Jacksonville Center
Fri 10:07:42 AM 28.3261 -86.7406 289° West 373 429 43,000  Level Jacksonville Center
Fri 10:08:42 AM 28.3600 -86.8575 288° West 379 436 43,000  Level Jacksonville Center
Fri 10:09:42 AM 28.3939 -86.9719 289° West 379 436 43,000  Level Jacksonville Center
Fri 10:10:43 AM 28.4239 -87.0772 288° West 379 436 43,000  Level Jacksonville Center
Fri 10:11:44 AM 28.4578 -87.1919 289° West 379 436 43,000  Level Jacksonville Center
Fri 10:13:05 AM 28.4994 -87.3392 288° West 376 433 43,000  Level Houston Center
Fri 10:14:07 AM 28.5319 -87.4522 288° West 375 432 43,000  Level Houston Center
Fri 10:15:09 AM 28.5714 -87.5881 288° West 376 433 43,000  Level Houston Center
Fri 10:16:11 AM 28.6031 -87.7017 288° West 376 433 43,000  Level Houston Center
Fri 10:17:13 AM 28.6361 -87.8153 288° West 378 435 43,000  Level Houston Center
Fri 10:18:15 AM 28.6681 -87.9281 288° West 377 434 43,000  Level Houston Center
Fri 10:19:17 AM 28.6997 -88.0414 288° West 376 433 43,000  Level Houston Center
Fri 10:20:20 AM 28.7350 -88.1669 288° West 376 433 43,000 -768 Level Houston Center
Fri 10:21:22 AM 28.7664 -88.2800 288° West 376 433 41,400 -1,742 Descending Houston Center
Fri 10:22:24 AM 28.7986 -88.3942 288° West 378 435 39,400 -1,645 Descending Houston Center
Fri 10:23:26 AM 28.8306 -88.5064 288° West 376 433 38,000 -677 Descending Houston Center
Fri 10:24:28 AM 28.8661 -88.6408 287° West 371 427 38,000  Level Houston Center
Fri 10:25:30 AM 28.8956 -88.7519 287° West 367 422 38,000  Level Houston Center
Fri 10:26:32 AM 28.9189 -88.8653 283° West 367 422 38,000 -435 Level Houston Center
Fri 10:27:34 AM 28.9422 -88.9769 283° West 363 418 37,100 -1,355 Descending Houston Center
Fri 10:28:36 AM 28.9669 -89.0919 284° West 370 426 35,200 -1,839 Descending Houston Center
Fri 10:29:38 AM 28.9917 -89.2119 283° West 385 443 33,300 -2,016 Descending Houston Center
Fri 10:30:41 AM 29.0217 -89.3572 283° West 391 450 31,000 -2,016 Descending Houston Center
Fri 10:31:43 AM 29.0472 -89.4783 284° West 392 451 29,100 -1,790 Descending Houston Center
Fri 10:32:45 AM 29.0719 -89.6000 283° West 394 453 27,300 -1,839 Descending Houston Center
Fri 10:33:47 AM 29.0969 -89.7250 283° West 399 459 25,300 -1,887 Descending Houston Center
Fri 10:34:49 AM 29.1222 -89.8461 283° West 397 457 23,400 -1,597 Descending Houston Center
Fri 10:35:51 AM 29.1478 -89.9675 284° West 393 452 22,000 -677 Descending Houston Center
Fri 10:36:53 AM 29.1761 -90.1058 283° West 378 435 22,000  Level Houston Center
Fri 10:37:55 AM 29.2303 -90.2033 302° West 365 420 22,000  Level Houston Center
Fri 10:38:57 AM 29.2844 -90.2994 303° West 361 415 22,000  Level Houston Center
Fri 10:40:00 AM 29.3378 -90.3956 302° West 357 411 22,000  Level Houston Center
Fri 10:41:02 AM 29.3908 -90.4903 303° West 354 407 22,000  Level Houston Center
Fri 10:42:04 AM 29.4439 -90.5869 302° West 356 410 22,000  Level Houston Center
Fri 10:43:06 AM 29.5069 -90.7011 302° West 352 405 22,000 -48 Level Houston Center
Fri 10:44:08 AM 29.5594 -90.7967 302° West 353 406 21,900 -968 Descending Houston Center
Fri 10:45:10 AM 29.6108 -90.8897 302° West 346 398 20,000 -1,887 Descending Houston Center
Fri 10:46:12 AM 29.6614 -90.9811 302° West 338 389 18,000 -1,742 Descending Houston Center
Fri 10:47:14 AM 29.7103 -91.0700 302° West 329 379 16,400 -2,226 Descending Houston Center
Fri 10:48:16 AM 29.7156 -91.1567 274° West 267 307 13,400 -1,632 Descending Houston Center
Fri 10:49:19 AM 29.7153 -91.2478 270° West 238 274 13,000 -192 Descending Houston Center
Fri 10:50:21 AM 29.7150 -91.3239 270° West 237 273 13,000  Level Houston Center
Fri 10:51:23 AM 29.7150 -91.4003 270° West 239 275 13,000  Level Houston Center
Fri 10:52:25 AM 29.7150 -91.4786 270° West 245 282 13,000  Level Houston Center
Fri 10:53:27 AM 29.6908 -91.4589 145° Southeast 270 311 13,000  Level Houston Center
Fri 10:54:29 AM 29.7142 -91.5086 298° West 226 260 13,000 -97 Level Houston Center
Fri 10:55:31 AM 29.7131 -91.5594 269° West 128 147 12,800 -194 Descending Houston Center
Fri 10:56:33 AM 29.7172 -91.6214 274° West 206 237 12,600 -384 Descending Houston Center
Fri 10:57:36 AM 29.7606 -91.6583 323° Northwest 206 237 12,000 -384 Descending Houston Center
Fri 10:58:38 AM 29.7933 -91.7153 304° West 227 261 11,800 -484 Descending Houston Center
Fri 10:59:40 AM 29.8403 -91.7689 315° West 212 244 11,000 -871 Descending Houston Center
Fri 11:00:42 AM 29.8908 -91.8122 323° Northwest 224 258 10,000 -1,306 Descending Houston Center
Fri 11:01:44 AM 29.9242 -91.8714 303° West 245 282 8,300 -1,113 Descending Houston Center
Fri 11:02:46 AM 29.9342 -91.9436 279° West 231 266 7,700 -1,306 Descending Houston Center
Fri 11:03:48 AM 29.9422 -92.0178 277° West 231 266 5,600 -1,984 Descending Houston Center
Fri 11:04:50 AM 29.9572 -92.0936 283° West 240 276 3,600 -1,935 Descending Houston Center
Fri 11:06:00 AM 30.0592 -92.0501 20° North  Level Estimated
Fri 11:13:00 AM 30.2050 -91.9877 20° North  Level Estimated
Fri 11:14:00 AM 30.2050 -91.9877 180° South  Level Estimated
Fri 11:15:00 AM 30.2050 -91.9877 180° South  Level Estimated
Fri 11:16:00 AM 30.2050 -91.9877 180° South  Level Estimated

Login

Don't have an account? Register now (free) for customized features, flight alerts, and more!